Sorrento, Florida
Current Conditions -  °F | °C
As of 12:53 AM on Sunday 21 Dec 2014 (Local Time) from KLEE Reporting Station
Broken Clouds Broken Clouds  
Wind Chill: 17°   Ceiling: 8500
Heat Index: 17°   Visibility: 9mi
Dew Point: 16°   Wind: 3mph
Humidity: 93%   Direction: 30°NNE
Pressure: 30.11"   Gusts: NA
Location:  28.81°N, 81.56°W
Report Text: KLEE 210553Z AUTO 03003KT 9SM BKN085 17/16 A3011 RMK AO2 SLP193 T01670156 10200 20167 58002
Loading
Personal Weather Stations






























Interactive Weather Map New forecast layout! Learn more

10-Day Weather Forecast

Advertisements
Track Severe Weather on mobile